Time;durP1;ratioP1;P1;durP2;ratioP2;P2;SDS_P1;SDS_P2;PMS_P1;PMS_P2;Temp;Humidity;BMP_temperature;BMP_pressure;BME280_temperature;BME280_humidity;BME280_pressure;Samples;Min_cycle;Max_cycle;Signal;HPM_P1;HPM_P2
2023/08/31 00:01:33;;;;;;;5.78;2.30;;;;;;;15.20;75.55;100650.00;7395661;19;20483;-65
2023/08/31 00:04:01;;;;;;;7.00;2.22;;;;;;;15.24;75.05;100638.03;7394902;19;20019;-65
2023/08/31 00:06:28;;;;;;;6.20;2.20;;;;;;;15.24;74.82;100640.72;7394746;19;20590;-65
2023/08/31 00:08:56;;;;;;;6.57;2.30;;;;;;;15.21;74.79;100651.66;7395801;19;20363;-65
2023/08/31 00:11:24;;;;;;;8.80;2.40;;;;;;;15.21;74.71;100645.50;7397257;19;20014;-65
2023/08/31 00:13:52;;;;;;;4.82;2.00;;;;;;;15.07;75.28;100645.00;7394982;19;20022;-65
2023/08/31 00:16:25;;;;;;;4.85;1.95;;;;;;;15.06;75.08;100645.97;7397297;19;20082;-65
2023/08/31 00:18:56;;;;;;;7.57;2.25;;;;;;;15.03;75.06;100651.59;7395420;19;20051;-65
2023/08/31 00:21:24;;;;;;;6.78;2.58;;;;;;;15.01;75.13;100653.56;7397080;19;20022;-65
2023/08/31 00:23:51;;;;;;;6.40;2.08;;;;;;;15.06;75.11;100653.13;7394633;19;20023;-65
2023/08/31 00:26:19;;;;;;;7.95;2.47;;;;;;;14.99;75.08;100649.34;7397326;19;20019;-65
2023/08/31 00:28:47;;;;;;;6.78;2.38;;;;;;;14.98;74.95;100655.66;7398014;19;20022;-65
2023/08/31 00:31:14;;;;;;;6.50;2.25;;;;;;;15.03;74.72;100653.41;7395760;19;20022;-66
2023/08/31 00:33:43;;;;;;;6.32;2.17;;;;;;;14.98;74.88;100647.66;7394558;19;20041;-65
2023/08/31 00:36:10;;;;;;;5.97;1.92;;;;;;;15.00;74.89;100651.06;7397437;19;20368;-65
2023/08/31 00:38:37;;;;;;;6.35;2.20;;;;;;;15.03;74.59;100648.06;7396608;19;20010;-65
2023/08/31 00:41:05;;;;;;;5.78;2.10;;;;;;;15.00;74.59;100656.38;7396577;19;20021;-65
2023/08/31 00:43:33;;;;;;;3.47;1.92;;;;;;;14.95;74.73;100658.63;7393571;19;20039;-65
2023/08/31 00:46:01;;;;;;;5.20;2.15;;;;;;;14.90;74.63;100659.06;7395271;19;20045;-65
2023/08/31 00:48:28;;;;;;;5.95;2.08;;;;;;;14.85;74.84;100670.16;7395330;19;20022;-65
2023/08/31 00:50:56;;;;;;;6.82;1.98;;;;;;;14.86;74.60;100663.00;7393595;19;20041;-65
2023/08/31 00:53:23;;;;;;;5.47;2.20;;;;;;;14.83;74.57;100665.94;7392887;19;20372;-65
2023/08/31 00:55:51;;;;;;;5.65;1.88;;;;;;;14.80;74.65;100667.06;7395928;19;20035;-65
2023/08/31 00:58:19;;;;;;;6.40;2.22;;;;;;;14.80;74.29;100663.56;7395759;19;20082;-65
2023/08/31 01:01:05;;;;;;;4.60;2.03;;;;;;;14.89;73.61;100669.88;7394960;19;20022;-65
2023/08/31 01:03:33;;;;;;;6.55;2.00;;;;;;;14.75;74.06;100666.66;7393874;19;20023;-65
2023/08/31 01:06:18;;;;;;;4.68;1.85;;;;;;;14.78;73.64;100665.53;7393320;19;20476;-66
2023/08/31 01:09:07;;;;;;;8.40;1.80;;;;;;;14.70;74.22;100665.41;7394279;19;20086;-65
2023/08/31 01:12:02;;;;;;;4.70;2.22;;;;;;;14.70;74.21;100662.75;7394245;19;20027;-65
2023/08/31 01:14:42;;;;;;;5.72;2.20;;;;;;;14.63;74.56;100667.78;7391303;19;20023;-65
2023/08/31 01:17:12;;;;;;;7.10;2.08;;;;;;;14.63;74.39;100660.63;7394659;19;20019;-65
2023/08/31 01:19:47;;;;;;;4.68;2.15;;;;;;;14.65;74.32;100662.31;7390284;19;20030;-66
2023/08/31 01:22:23;;;;;;;5.25;1.80;;;;;;;14.65;74.21;100657.81;7394673;19;20018;-65
2023/08/31 01:24:51;;;;;;;5.47;2.05;;;;;;;14.68;74.00;100665.53;7392104;19;20015;-65
2023/08/31 01:27:20;;;;;;;4.93;1.85;;;;;;;14.65;74.12;100665.81;7393736;19;20018;-64
2023/08/31 01:29:47;;;;;;;5.03;2.08;;;;;;;14.67;74.09;100663.88;7393445;19;20033;-64
2023/08/31 01:32:14;;;;;;;6.65;2.20;;;;;;;14.69;74.09;100664.56;7394037;19;20015;-64
2023/08/31 01:34:42;;;;;;;5.53;2.30;;;;;;;14.69;73.87;100664.56;7390949;19;20798;-64
2023/08/31 01:37:21;;;;;;;6.78;2.63;;;;;;;14.61;74.40;100665.28;7392590;19;20022;-65
2023/08/31 01:40:14;;;;;;;5.63;2.33;;;;;;;14.62;74.37;100650.13;7394760;19;20022;-64
2023/08/31 01:42:43;;;;;;;5.63;2.53;;;;;;;14.49;74.78;100660.19;7392557;19;20014;-65
2023/08/31 01:45:14;;;;;;;8.38;2.35;;;;;;;14.46;75.01;100655.13;7392130;19;20388;-65
2023/08/31 01:47:41;;;;;;;6.57;2.42;;;;;;;14.42;74.99;100656.41;7390735;19;20025;-64
2023/08/31 01:50:09;;;;;;;6.57;2.10;;;;;;;14.49;74.96;100660.19;7390315;19;20065;-64
2023/08/31 01:52:37;;;;;;;4.70;2.30;;;;;;;14.42;75.34;100662.56;7391143;19;20039;-65
2023/08/31 01:55:06;;;;;;;5.55;2.13;;;;;;;14.49;75.13;100661.06;7388924;19;20015;-64
2023/08/31 01:57:33;;;;;;;7.13;2.58;;;;;;;14.48;74.99;100669.16;7390532;19;20045;-65
2023/08/31 02:00:01;;;;;;;8.48;2.60;;;;;;;14.45;75.05;100662.28;7391789;19;20044;-65
2023/08/31 02:02:28;;;;;;;6.38;3.22;;;;;;;14.48;74.94;100669.16;7391561;19;20017;-65
2023/08/31 02:04:56;;;;;;;8.50;2.65;;;;;;;14.43;75.16;100664.28;7397136;19;20007;-65
2023/08/31 02:07:24;;;;;;;6.47;2.70;;;;;;;14.42;75.17;100675.88;7392104;19;20485;-66
2023/08/31 02:09:51;;;;;;;4.70;2.60;;;;;;;14.37;75.30;100680.81;7392556;19;20019;-66
2023/08/31 02:12:18;;;;;;;7.10;2.60;;;;;;;14.36;75.46;100671.13;7392856;19;20019;-65
2023/08/31 02:14:46;;;;;;;6.05;2.72;;;;;;;14.38;75.49;100685.16;7390010;19;20046;-65
2023/08/31 02:17:13;;;;;;;6.32;2.50;;;;;;;14.46;75.17;100679.13;7395186;19;20011;-65
2023/08/31 02:19:40;;;;;;;6.45;2.30;;;;;;;14.42;74.88;100680.38;7394754;19;20023;-65
2023/08/31 02:22:08;;;;;;;9.18;2.90;;;;;;;14.34;75.41;100684.56;7393784;19;20045;-65
2023/08/31 02:24:36;;;;;;;6.78;2.92;;;;;;;14.41;75.01;100682.19;7390881;19;20430;-65
2023/08/31 02:27:04;;;;;;;5.63;2.35;;;;;;;14.39;75.10;100679.69;7391749;19;20412;-65
2023/08/31 02:29:31;;;;;;;4.88;2.58;;;;;;;14.38;74.87;100677.16;7392513;19;20014;-65
2023/08/31 02:31:59;;;;;;;7.18;2.85;;;;;;;14.38;74.73;100674.47;7391782;19;20039;-65
2023/08/31 02:34:27;;;;;;;7.45;2.50;;;;;;;14.32;75.10;100680.38;7389995;19;20033;-66
2023/08/31 02:36:55;;;;;;;5.88;2.60;;;;;;;14.29;75.19;100672.66;7391715;19;20039;-65
2023/08/31 02:39:23;;;;;;;7.43;2.65;;;;;;;14.32;74.83;100680.38;7390642;19;20027;-65
2023/08/31 02:41:50;;;;;;;7.80;2.72;;;;;;;14.35;74.79;100678.28;7391976;19;20074;-65
2023/08/31 02:44:17;;;;;;;6.82;2.60;;;;;;;14.19;75.33;100675.31;7390180;19;20039;-65
2023/08/31 02:46:46;;;;;;;7.45;2.72;;;;;;;14.19;75.37;100680.63;7390657;19;20015;-65
2023/08/31 02:49:14;;;;;;;7.90;2.70;;;;;;;14.23;75.27;100678.53;7390033;19;20089;-65
2023/08/31 02:51:41;;;;;;;7.60;2.33;;;;;;;14.30;74.91;100677.84;7391576;19;20045;-65
2023/08/31 02:54:09;;;;;;;5.35;2.72;;;;;;;14.31;74.68;100687.53;7388161;19;20057;-65
2023/08/31 02:56:36;;;;;;;6.60;2.38;;;;;;;14.27;74.90;100686.13;7389974;19;20383;-65
2023/08/31 02:59:04;;;;;;;6.13;2.35;;;;;;;14.23;74.63;100683.88;7391873;19;20019;-65
2023/08/31 03:01:31;;;;;;;6.68;2.60;;;;;;;14.23;74.88;100686.53;7391124;19;20590;-65
2023/08/31 03:03:59;;;;;;;6.03;2.70;;;;;;;14.19;74.95;100685.97;7389902;19;20029;-65
2023/08/31 03:06:27;;;;;;;7.57;2.90;;;;;;;14.24;74.68;100682.91;7391835;19;20361;-65
2023/08/31 03:08:54;;;;;;;7.90;3.05;;;;;;;14.17;74.82;100679.94;7388169;19;20014;-65
2023/08/31 03:11:21;;;;;;;6.38;3.00;;;;;;;14.09;74.84;100685.13;7391525;19;20021;-65
2023/08/31 03:13:49;;;;;;;6.20;2.72;;;;;;;13.99;75.46;100685.09;7389650;19;20030;-65
2023/08/31 03:16:16;;;;;;;8.98;3.42;;;;;;;14.03;75.12;100683.84;7390948;19;20022;-65
2023/08/31 03:18:44;;;;;;;7.03;2.80;;;;;;;14.01;74.89;100685.81;7389685;19;20019;-65
2023/08/31 03:21:11;;;;;;;6.13;2.63;;;;;;;13.99;75.04;100690.41;7391944;19;20530;-65
2023/08/31 03:23:39;;;;;;;8.15;3.20;;;;;;;14.05;74.92;100689.88;7388418;19;20506;-65
2023/08/31 03:26:09;;;;;;;8.70;3.00;;;;;;;14.14;74.36;100690.88;7391875;19;20382;-65
2023/08/31 03:28:39;;;;;;;7.88;3.08;;;;;;;13.98;74.96;100704.72;7389384;19;20036;-65
2023/08/31 03:31:07;;;;;;;6.60;2.83;;;;;;;13.96;74.96;100689.84;7388654;19;20039;-65
2023/08/31 03:33:37;;;;;;;7.68;2.97;;;;;;;14.05;74.62;100697.88;7386886;19;20066;-65
2023/08/31 03:36:05;;;;;;;8.23;3.00;;;;;;;13.99;74.71;100694.91;7388994;19;20022;-65
2023/08/31 03:38:37;;;;;;;5.22;2.85;;;;;;;13.99;74.61;100695.75;7386799;19;20018;-65
2023/08/31 03:41:05;;;;;;;7.05;3.00;;;;;;;14.01;74.58;100695.63;7389480;19;20018;-65
2023/08/31 03:43:33;;;;;;;7.10;3.03;;;;;;;14.00;74.47;100692.09;7387770;19;20019;-65
2023/08/31 03:46:00;;;;;;;7.45;3.10;;;;;;;13.96;74.87;100696.00;7397506;19;20014;-65
2023/08/31 03:48:28;;;;;;;7.43;3.28;;;;;;;13.97;74.59;100697.72;7393959;19;20032;-65
2023/08/31 03:50:56;;;;;;;8.10;3.05;;;;;;;13.97;74.65;100697.72;7399300;19;20025;-64
2023/08/31 03:53:23;;;;;;;6.47;3.13;;;;;;;14.00;74.32;100696.59;7394002;19;20019;-64
2023/08/31 03:55:51;;;;;;;8.88;3.08;;;;;;;14.07;74.37;100701.22;7398126;19;20493;-64
2023/08/31 03:58:18;;;;;;;9.45;2.80;;;;;;;14.05;74.63;100705.88;7398000;19;20025;-64
2023/08/31 04:00:49;;;;;;;7.07;3.08;;;;;;;14.05;74.34;100708.53;7395382;19;20507;-64
2023/08/31 04:03:16;;;;;;;9.80;3.60;;;;;;;13.86;75.31;100711.13;7394967;19;20028;-65
2023/08/31 04:05:44;;;;;;;7.30;3.50;;;;;;;13.79;75.56;100707.31;7397457;19;20015;-65
2023/08/31 04:08:12;;;;;;;8.30;3.95;;;;;;;13.82;75.29;100712.38;7396028;19;20018;-66
2023/08/31 04:10:39;;;;;;;6.70;3.38;;;;;;;13.89;75.15;100702.88;7395415;19;20494;-66
2023/08/31 04:13:07;;;;;;;8.30;3.25;;;;;;;13.78;75.26;100713.63;7396464;19;20038;-65
2023/08/31 04:15:34;;;;;;;10.15;3.63;;;;;;;13.76;75.41;100718.22;7397852;19;20019;-65
2023/08/31 04:18:02;;;;;;;9.20;4.03;;;;;;;13.87;74.98;100721.63;7397319;19;20019;-66
2023/08/31 04:20:30;;;;;;;7.03;3.58;;;;;;;13.76;75.20;100726.22;7397073;19;20015;-66
2023/08/31 04:22:58;;;;;;;7.07;3.72;;;;;;;13.84;75.20;100719.25;7395951;19;20494;-64
2023/08/31 04:25:30;;;;;;;7.28;3.42;;;;;;;13.90;74.85;100721.38;7394740;19;20487;-63
2023/08/31 04:27:58;;;;;;;7.47;3.92;;;;;;;13.93;74.50;100722.06;7395627;19;20048;-64
2023/08/31 04:30:26;;;;;;;7.55;3.53;;;;;;;13.84;74.78;100727.22;7395624;19;20019;-64
2023/08/31 04:32:54;;;;;;;8.98;3.63;;;;;;;13.78;75.17;100725.13;7395527;19;20027;-64
2023/08/31 04:35:21;;;;;;;7.28;3.40;;;;;;;13.81;74.89;100719.53;7396960;19;20014;-64
2023/08/31 04:37:48;;;;;;;8.70;3.88;;;;;;;13.80;74.81;100719.66;7395296;19;20018;-64
2023/08/31 04:40:16;;;;;;;10.07;4.18;;;;;;;13.79;74.95;100724.13;7396422;19;20029;-64
2023/08/31 04:42:43;;;;;;;9.55;4.00;;;;;;;13.78;74.85;100725.13;7395825;19;20624;-64
2023/08/31 04:45:12;;;;;;;7.50;3.95;;;;;;;13.80;74.92;100728.47;7394828;19;20010;-64
2023/08/31 04:47:39;;;;;;;8.90;3.92;;;;;;;13.88;74.62;100736.63;7396202;19;20015;-64
2023/08/31 04:50:07;;;;;;;7.72;4.05;;;;;;;13.92;74.55;100731.03;7396698;19;20014;-64
2023/08/31 04:52:35;;;;;;;7.65;3.90;;;;;;;13.91;74.44;100735.53;7393690;19;20029;-64
2023/08/31 04:55:08;;;;;;;8.43;4.30;;;;;;;13.78;75.00;100725.13;7394959;19;20697;-66
2023/08/31 04:57:36;;;;;;;;;;;;;;;13.55;75.84;100734.28;7396295;19;20070;-65
2023/08/31 05:00:04;;;;;;;8.25;3.88;;;;;;;13.58;76.01;100739.31;7394896;19;19925;-66
2023/08/31 05:02:32;;;;;;;9.60;4.35;;;;;;;13.74;75.64;100722.88;7393281;19;20040;-66
2023/08/31 05:04:59;;;;;;;11.48;4.78;;;;;;;13.84;75.06;100729.88;7394598;19;20042;-66
2023/08/31 05:07:27;;;;;;;9.38;4.10;;;;;;;13.97;74.79;100737.66;7393150;19;20014;-65
2023/08/31 05:09:55;;;;;;;8.02;4.10;;;;;;;14.00;74.77;100732.03;7394878;19;20026;-65
2023/08/31 05:12:22;;;;;;;8.20;4.45;;;;;;;14.07;74.46;100738.50;7395202;19;20118;-65
2023/08/31 05:14:49;;;;;;;10.40;5.13;;;;;;;14.08;74.33;100736.69;7392450;19;20022;-65
2023/08/31 05:17:17;;;;;;;10.63;4.75;;;;;;;14.03;74.65;100741.59;7395011;19;20015;-65
2023/08/31 05:19:45;;;;;;;9.13;4.40;;;;;;;14.04;74.53;100740.59;7395521;19;20021;-65
2023/08/31 05:22:14;;;;;;;11.02;5.30;;;;;;;14.02;74.50;100740.75;7394676;19;20352;-65
2023/08/31 05:24:41;;;;;;;10.70;4.30;;;;;;;14.07;74.54;100733.19;7391953;19;20045;-65
2023/08/31 05:27:09;;;;;;;9.90;4.60;;;;;;;14.06;74.53;100749.31;7394541;19;20028;-66
2023/08/31 05:29:36;;;;;;;9.68;4.40;;;;;;;14.14;74.46;100747.63;7392767;19;20018;-66
2023/08/31 05:32:04;;;;;;;10.35;4.60;;;;;;;14.11;74.70;100749.72;7393943;19;20503;-65
2023/08/31 05:34:34;;;;;;;10.95;5.07;;;;;;;14.16;74.31;100750.19;7392500;19;20015;-65
2023/08/31 05:37:04;;;;;;;9.57;4.70;;;;;;;14.13;74.36;100756.63;7393097;19;20046;-65
2023/08/31 05:39:32;;;;;;;10.82;4.35;;;;;;;14.11;74.23;100753.22;7393709;19;20018;-65
2023/08/31 05:41:59;;;;;;;9.35;4.97;;;;;;;14.13;74.45;100761.09;7394246;19;20604;-65
2023/08/31 05:44:28;;;;;;;9.38;4.57;;;;;;;14.07;74.62;100756.31;7391915;19;20022;-65
2023/08/31 05:46:56;;;;;;;9.48;4.55;;;;;;;14.00;74.94;100752.50;7394150;19;20035;-65
2023/08/31 05:49:23;;;;;;;9.82;4.55;;;;;;;13.99;74.97;100756.16;7391627;19;20074;-65
2023/08/31 05:51:50;;;;;;;10.55;4.45;;;;;;;14.01;75.01;100760.38;7394277;19;20025;-65
2023/08/31 05:54:18;;;;;;;9.48;4.60;;;;;;;13.99;75.14;100764.13;7392177;19;20082;-65
2023/08/31 05:56:47;;;;;;;14.18;5.40;;;;;;;13.98;75.19;100763.28;7394078;19;20035;-65
2023/08/31 05:59:15;;;;;;;9.38;4.57;;;;;;;14.03;74.86;100760.22;7394282;19;20508;-65
2023/08/31 06:01:43;;;;;;;10.05;4.38;;;;;;;14.14;74.47;100765.44;7393563;19;20386;-65
2023/08/31 06:04:11;;;;;;;9.30;4.40;;;;;;;14.15;74.52;100764.47;7392606;19;20015;-65
2023/08/31 06:06:38;;;;;;;9.93;4.90;;;;;;;14.13;74.77;100772.59;7390180;19;20026;-65
2023/08/31 06:09:07;;;;;;;10.40;5.18;;;;;;;14.18;74.46;100772.19;7392325;19;20018;-66
2023/08/31 06:11:35;;;;;;;10.57;4.35;;;;;;;14.10;74.90;100767.53;7393674;19;20019;-64
2023/08/31 06:14:03;;;;;;;8.85;4.82;;;;;;;14.15;74.88;100778.59;7392104;19;20010;-64
2023/08/31 06:16:30;;;;;;;11.65;4.78;;;;;;;14.35;74.42;100778.69;7393118;19;20415;-64
2023/08/31 06:18:58;;;;;;;9.18;5.05;;;;;;;14.51;74.00;100773.69;7391290;19;20019;-64
2023/08/31 06:21:25;;;;;;;10.02;5.45;;;;;;;14.65;73.71;100776.91;7390841;19;20046;-64
2023/08/31 06:23:53;;;;;;;10.32;5.32;;;;;;;14.64;73.87;100781.41;7391451;19;20014;-64
2023/08/31 06:26:20;;;;;;;10.07;4.95;;;;;;;14.67;73.98;100785.63;7393029;19;20486;-64
2023/08/31 06:28:48;;;;;;;8.32;4.22;;;;;;;14.68;73.93;100781.97;7392494;19;20090;-64
2023/08/31 06:31:15;;;;;;;9.35;4.90;;;;;;;14.72;73.60;100786.06;7393190;19;20042;-66
2023/08/31 06:33:43;;;;;;;9.65;4.88;;;;;;;14.78;73.50;100789.00;7386544;19;20030;-64
2023/08/31 06:36:10;;;;;;;10.93;5.30;;;;;;;14.83;73.43;100785.91;7392031;19;20021;-64
2023/08/31 06:38:37;;;;;;;9.02;4.85;;;;;;;14.91;73.35;100787.88;7392351;19;20026;-65
2023/08/31 06:41:05;;;;;;;12.05;5.72;;;;;;;14.93;73.05;100786.78;7392197;19;20014;-65
2023/08/31 06:43:33;;;;;;;10.07;4.97;;;;;;;14.92;73.15;100786.91;7388715;19;20011;-64
2023/08/31 06:46:00;;;;;;;10.18;5.18;;;;;;;14.84;73.44;100788.47;7390966;19;20014;-65
2023/08/31 06:48:48;;;;;;;10.68;5.40;;;;;;;14.87;73.28;100793.50;7391208;19;20022;-64
2023/08/31 06:51:16;;;;;;;9.40;4.82;;;;;;;15.01;73.11;100786.06;7392171;19;20059;-63
2023/08/31 06:53:44;;;;;;;13.50;5.60;;;;;;;15.11;72.59;100784.25;7388917;19;20478;-63
2023/08/31 06:56:11;;;;;;;8.55;5.00;;;;;;;15.05;72.74;100782.13;7392295;19;20487;-63
2023/08/31 06:58:39;;;;;;;10.98;5.30;;;;;;;15.05;72.89;100782.97;7391993;19;20036;-64
2023/08/31 07:01:06;;;;;;;9.23;5.25;;;;;;;15.07;72.97;100786.34;7391726;19;20034;-64
2023/08/31 07:03:34;;;;;;;10.40;5.35;;;;;;;15.10;72.86;100791.38;7388906;19;20033;-64
2023/08/31 07:06:02;;;;;;;12.05;4.97;;;;;;;15.11;72.77;100784.25;7392187;19;20038;-63
2023/08/31 07:08:30;;;;;;;8.70;5.03;;;;;;;15.20;72.52;100790.56;7391269;19;20007;-64
2023/08/31 07:10:58;;;;;;;8.88;5.32;;;;;;;15.29;72.22;100795.84;7391187;19;20014;-64
2023/08/31 07:13:25;;;;;;;8.43;4.72;;;;;;;15.43;71.72;100797.25;7389857;19;20482;-64
2023/08/31 07:15:54;;;;;;;10.48;5.00;;;;;;;15.42;71.87;100797.41;7391344;19;20110;-64
2023/08/31 07:18:21;;;;;;;9.13;4.80;;;;;;;15.35;71.97;100795.31;7397117;19;20018;-64
2023/08/31 07:20:49;;;;;;;9.73;5.30;;;;;;;15.32;72.30;100800.91;7398469;19;20062;-64
2023/08/31 07:23:16;;;;;;;11.90;4.63;;;;;;;15.19;72.84;100803.06;7398038;19;20483;-64
2023/08/31 07:25:44;;;;;;;6.93;4.30;;;;;;;15.10;73.09;100803.88;7398223;19;20089;-63
2023/08/31 07:28:11;;;;;;;11.07;4.72;;;;;;;15.18;73.19;100804.00;7397642;19;20028;-64
2023/08/31 07:30:39;;;;;;;9.55;4.40;;;;;;;15.26;72.96;100797.97;7398919;19;20082;-64
2023/08/31 07:33:07;;;;;;;10.98;5.10;;;;;;;15.33;72.85;100791.09;7397824;19;20043;-64
2023/08/31 07:35:54;;;;;;;9.15;4.88;;;;;;;15.26;72.61;100795.31;7399117;19;20025;-64
2023/08/31 07:38:21;;;;;;;6.75;4.40;;;;;;;15.22;73.01;100808.09;7398582;19;20733;-64
2023/08/31 07:40:49;;;;;;;10.98;5.05;;;;;;;15.19;73.09;100808.38;7397929;19;20015;-64
2023/08/31 07:43:16;;;;;;;9.55;4.35;;;;;;;15.20;72.88;100807.41;7396211;19;20022;-64
2023/08/31 07:45:44;;;;;;;9.45;4.30;;;;;;;15.31;72.86;100809.06;7398266;19;20573;-63
2023/08/31 07:48:11;;;;;;;8.93;4.90;;;;;;;15.36;73.06;100812.16;7398419;19;20015;-63
2023/08/31 07:50:43;;;;;;;8.52;4.60;;;;;;;15.44;72.86;100806.94;7395077;19;20507;-63
2023/08/31 07:53:11;;;;;;;8.68;4.72;;;;;;;15.46;72.73;100804.13;7396771;19;20022;-63
2023/08/31 07:55:40;;;;;;;9.73;5.15;;;;;;;15.40;73.07;100815.38;7397722;19;20468;-63
2023/08/31 07:58:07;;;;;;;8.05;4.97;;;;;;;15.49;72.85;100811.84;7398936;19;20014;-63
2023/08/31 08:00:34;;;;;;;8.38;5.22;;;;;;;15.58;72.59;100811.00;7398534;19;20367;-63
2023/08/31 08:03:02;;;;;;;9.15;5.07;;;;;;;15.68;72.39;100814.53;7397046;19;20022;-63
2023/08/31 08:05:29;;;;;;;8.25;5.30;;;;;;;15.56;72.66;100810.28;7398186;19;20344;-63
2023/08/31 08:07:57;;;;;;;7.70;5.05;;;;;;;15.48;72.78;100819.00;7398065;19;20021;-64
2023/08/31 08:10:24;;;;;;;8.98;4.90;;;;;;;15.38;73.26;100820.88;7396886;19;20018;-64
2023/08/31 08:12:52;;;;;;;8.55;5.22;;;;;;;15.38;73.59;100820.88;7394093;19;20014;-64
2023/08/31 08:15:19;;;;;;;8.73;5.30;;;;;;;15.31;73.84;100825.09;7397086;19;20018;-64
2023/08/31 08:17:48;;;;;;;9.52;5.40;;;;;;;15.22;74.25;100834.75;7396667;19;20015;-64
2023/08/31 08:20:15;;;;;;;9.52;5.60;;;;;;;15.23;74.74;100828.47;7396389;19;20089;-64
2023/08/31 08:22:44;;;;;;;10.63;6.60;;;;;;;15.30;74.42;100823.38;7395748;19;20022;-64
2023/08/31 08:25:12;;;;;;;12.40;6.90;;;;;;;15.28;74.79;100833.38;7396602;19;20102;-64
2023/08/31 08:27:39;;;;;;;9.35;6.25;;;;;;;15.34;74.35;100825.66;7394667;19;20022;-64
2023/08/31 08:30:07;;;;;;;10.52;5.85;;;;;;;15.51;73.73;100839.25;7391577;19;20047;-63
2023/08/31 08:32:35;;;;;;;8.63;6.22;;;;;;;15.69;72.94;100834.03;7395797;19;20344;-64
2023/08/31 08:35:03;;;;;;;11.38;5.97;;;;;;;15.48;73.07;100837.69;7394244;19;20014;-64
2023/08/31 08:37:33;;;;;;;12.00;6.68;;;;;;;15.54;72.99;100838.97;7396044;19;20026;-64
2023/08/31 08:40:02;;;;;;;10.43;7.22;;;;;;;15.43;73.25;100839.94;7395959;19;20078;-64
2023/08/31 08:42:33;;;;;;;9.63;6.25;;;;;;;15.43;73.46;100841.78;7395278;19;20497;-64
2023/08/31 08:45:02;;;;;;;9.95;6.25;;;;;;;15.46;73.44;100842.34;7395413;19;20015;-63
2023/08/31 08:47:31;;;;;;;11.80;5.88;;;;;;;15.60;73.03;100843.72;7396120;19;20019;-63
2023/08/31 08:50:00;;;;;;;11.25;7.00;;;;;;;15.62;72.80;100852.44;7392535;19;20021;-64
2023/08/31 08:52:28;;;;;;;10.00;7.00;;;;;;;15.67;72.81;100847.53;7393560;19;20022;-63
2023/08/31 08:54:56;;;;;;;10.05;6.57;;;;;;;15.71;72.50;100856.09;7393787;19;20387;-63
2023/08/31 08:57:24;;;;;;;9.02;5.80;;;;;;;15.72;72.44;100858.63;7396528;19;20031;-63
2023/08/31 08:59:51;;;;;;;10.75;6.20;;;;;;;15.78;72.09;100862.53;7395474;19;20014;-63
2023/08/31 09:02:19;;;;;;;12.82;6.13;;;;;;;15.84;71.99;100870.81;7395057;19;20041;-63
2023/08/31 09:04:46;;;;;;;9.68;5.85;;;;;;;15.95;71.96;100871.63;7392973;19;20349;-63
2023/08/31 09:07:14;;;;;;;10.95;5.22;;;;;;;15.99;71.71;100881.06;7396171;19;20017;-64
2023/08/31 09:09:52;;;;;;;11.38;5.63;;;;;;;16.18;71.45;100877.44;7393988;19;20518;-64
2023/08/31 09:12:24;;;;;;;9.75;4.97;;;;;;;16.10;71.57;100878.19;7395914;19;20018;-64
2023/08/31 09:15:04;;;;;;;8.35;5.00;;;;;;;16.05;71.91;100875.97;7393558;19;20018;-64
2023/08/31 09:17:41;;;;;;;7.70;4.65;;;;;;;16.01;72.10;100881.75;7395733;19;20026;-64
2023/08/31 09:20:09;;;;;;;9.65;4.95;;;;;;;15.98;71.88;100882.03;7395647;19;20074;-64
2023/08/31 09:22:43;;;;;;;10.85;4.50;;;;;;;16.00;72.00;100888.06;7392849;19;20472;-64
2023/08/31 09:25:11;;;;;;;8.50;4.00;;;;;;;15.93;72.23;100881.63;7394574;19;20018;-64
2023/08/31 09:27:40;;;;;;;8.00;3.90;;;;;;;15.95;72.26;100887.66;7394391;19;20050;-63
2023/08/31 09:30:08;;;;;;;7.72;4.10;;;;;;;16.11;71.15;100879.88;7393250;19;20014;-63
2023/08/31 09:32:36;;;;;;;9.07;3.55;;;;;;;16.16;70.74;100885.63;7394336;19;20010;-63
2023/08/31 09:35:08;;;;;;;8.35;3.30;;;;;;;16.27;70.66;100895.31;7392540;19;20014;-63
2023/08/31 09:37:59;;;;;;;7.35;2.65;;;;;;;16.41;70.23;100891.28;7394529;19;20023;-63
2023/08/31 09:40:26;;;;;;;5.68;2.55;;;;;;;16.43;69.74;100886.66;7392491;19;20419;-63
2023/08/31 09:42:54;;;;;;;5.97;2.30;;;;;;;16.52;69.31;100881.28;7392105;19;20548;-63
2023/08/31 09:45:40;;;;;;;5.88;2.45;;;;;;;16.71;68.99;100882.13;7394333;19;20014;-63
2023/08/31 09:48:14;;;;;;;9.27;3.08;;;;;;;16.61;69.52;100873.34;7392303;19;20041;-63
2023/08/31 09:50:45;;;;;;;6.28;2.30;;;;;;;16.75;68.61;100878.19;7392693;19;20090;-63
2023/08/31 09:53:16;;;;;;;8.90;2.55;;;;;;;16.86;68.39;100875.31;7392599;19;20010;-63
2023/08/31 09:55:44;;;;;;;6.63;2.22;;;;;;;16.93;68.40;100875.56;7391829;19;20047;-63
2023/08/31 09:58:12;;;;;;;5.47;2.00;;;;;;;16.93;68.42;100875.56;7393770;19;20026;-64
2023/08/31 10:00:43;;;;;;;4.53;2.08;;;;;;;16.71;68.83;100866.94;7393943;19;20621;-63
2023/08/31 10:03:15;;;;;;;7.20;1.90;;;;;;;16.74;68.80;100863.97;7392057;19;20058;-63
2023/08/31 10:05:47;;;;;;;5.38;1.90;;;;;;;16.67;68.72;100859.34;7395836;19;20014;-63
2023/08/31 10:08:16;;;;;;;4.40;1.80;;;;;;;16.78;67.96;100865.34;7393349;19;20015;-60
2023/08/31 10:10:44;;;;;;;3.88;1.85;;;;;;;16.91;67.60;100866.84;7390048;19;20035;-62
2023/08/31 10:13:13;;;;;;;4.20;1.60;;;;;;;17.23;66.22;100861.78;7391305;19;20015;-62
2023/08/31 10:15:43;;;;;;;4.88;1.60;;;;;;;17.37;65.02;100868.47;7393684;19;20082;-62
2023/08/31 10:18:11;;;;;;;4.85;1.50;;;;;;;17.45;64.83;100865.84;7391493;19;20022;-60
2023/08/31 10:20:42;;;;;;;3.35;1.27;;;;;;;17.52;64.92;100866.06;7393313;19;20018;-59
2023/08/31 10:23:10;;;;;;;5.60;1.60;;;;;;;17.50;64.60;100868.03;7391566;19;20110;-63
2023/08/31 10:25:47;;;;;;;4.43;1.42;;;;;;;17.47;64.20;100863.00;7391322;19;20018;-63
2023/08/31 10:28:19;;;;;;;5.70;1.20;;;;;;;17.60;63.78;100867.97;7393061;19;20010;-63
2023/08/31 10:31:06;;;;;;;4.70;1.17;;;;;;;17.66;62.78;100857.44;7389884;19;20025;-61
2023/08/31 10:33:55;;;;;;;5.30;1.23;;;;;;;17.71;63.56;100851.66;7391172;19;20045;-61
2023/08/31 10:36:54;;;;;;;5.45;1.00;;;;;;;17.95;62.85;100864.38;7392177;19;20018;-63
2023/08/31 10:39:38;;;;;;;3.30;0.82;;;;;;;18.11;62.28;100864.47;7392020;19;20365;-62
2023/08/31 10:42:05;;;;;;;4.95;1.15;;;;;;;18.03;60.80;100865.25;7392343;19;20029;-62
2023/08/31 10:44:34;;;;;;;4.72;0.98;;;;;;;18.09;61.14;100863.81;7388276;19;20096;-61
2023/08/31 10:47:05;;;;;;;3.67;1.25;;;;;;;18.25;60.25;100866.56;7392877;19;20419;-62
2023/08/31 10:49:33;;;;;;;4.78;1.13;;;;;;;18.35;60.76;100869.09;7391835;19;20082;-61
2023/08/31 10:52:19;;;;;;;2.67;1.00;;;;;;;18.44;59.79;100880.72;7391653;19;20014;-62
2023/08/31 10:54:55;;;;;;;4.97;1.20;;;;;;;18.25;60.62;100871.91;7389869;19;20018;-60
2023/08/31 10:57:31;;;;;;;2.55;1.00;;;;;;;18.16;60.40;100878.25;7391037;19;20090;-60
2023/08/31 10:59:58;;;;;;;4.43;1.30;;;;;;;18.17;60.86;100877.25;7392525;19;20017;-62
2023/08/31 11:02:28;;;;;;;4.00;1.25;;;;;;;18.30;59.82;100878.63;7393890;19;20019;-62
2023/08/31 11:04:59;;;;;;;1.95;0.73;;;;;;;18.18;58.09;100878.09;7393676;19;20038;-62
2023/08/31 11:07:28;;;;;;;3.35;0.77;;;;;;;18.09;57.37;100879.88;7394081;19;20081;-63
2023/08/31 11:10:20;;;;;;;1.70;0.90;;;;;;;18.06;55.92;100882.88;7394036;19;20019;-59
2023/08/31 11:12:50;;;;;;;3.30;0.95;;;;;;;17.90;57.44;100878.25;7393248;19;20023;-60
2023/08/31 11:15:25;;;;;;;2.75;0.75;;;;;;;17.85;58.48;100882.41;7392262;19;20017;-60
2023/08/31 11:17:56;;;;;;;3.30;0.70;;;;;;;17.81;58.20;100883.72;7392727;19;20021;-60
2023/08/31 11:20:31;;;;;;;1.60;0.70;;;;;;;17.70;58.40;100887.44;7393373;19;20027;-61
2023/08/31 11:22:58;;;;;;;6.15;1.10;;;;;;;17.65;59.09;100895.94;7390909;19;20022;-62
2023/08/31 11:25:26;;;;;;;3.15;1.13;;;;;;;17.69;59.95;100891.13;7391343;19;20035;-60
2023/08/31 11:28:01;;;;;;;2.30;0.73;;;;;;;17.71;59.98;100889.97;7391794;19;20015;-61
2023/08/31 11:30:33;;;;;;;2.17;0.68;;;;;;;17.83;60.04;100904.00;7391356;19;20022;-60
2023/08/31 11:33:06;;;;;;;1.92;0.75;;;;;;;17.73;60.36;100889.81;7388739;19;20018;-61
2023/08/31 11:35:36;;;;;;;2.80;0.90;;;;;;;17.51;61.30;100891.16;7392193;19;20017;-61